<?xml version="1.0" encoding="UTF-8" standalone="no" ?>
<gpx xmlns="http://www.topografix.com/GPX/1/1" xmlns:xsi="http://www.w3.org/2001/XMLSchema-instance" xsi:schemaLocation="http://www.topografix.com/GPX/1/1 http://www.topografix.com/GPX/1/1/gpx.xsd" version="1.1" creator="VisuGPX - https://www.visugpx.com">
  <metadata>
    <name>Redon_Chateaulin</name>
    <desc><![CDATA[Randonnée cyclotouriste de Redon à Châteaulin par le chemin de halage du canal de Nantes à Brest avec quelques échappées vers Rostrenen, Carhaix et Pleyben.]]></desc>
  </metadata>
  <trk>
    <name><![CDATA[ACTIVE LOG 008]]></name>
    <trkseg>
      <trkpt lat="48.2123" lon="-3.12756">
        <ele>146.2578125</ele>
        <time>2012-04-17T11:57:02Z</time>
      </trkpt>
      <trkpt lat="48.21213" lon="-3.12745">
        <ele>124.14733886719</ele>
        <time>2012-04-17T11:57:57Z</time>
      </trkpt>
      <trkpt lat="48.21244" lon="-3.12771">
        <ele>121.744140625</ele>
        <time>2012-04-17T11:58:12Z</time>
      </trkpt>
      <trkpt lat="48.21274" lon="-3.12794">
        <ele>118.86010742188</ele>
        <time>2012-04-17T11:58:26Z</time>
      </trkpt>
      <trkpt lat="48.21299" lon="-3.12811">
        <ele>116.45678710938</ele>
        <time>2012-04-17T11:58:39Z</time>
      </trkpt>
      <trkpt lat="48.21317" lon="-3.12828">
        <ele>117.89880371094</ele>
        <time>2012-04-17T11:58:49Z</time>
      </trkpt>
      <trkpt lat="48.21309" lon="-3.12849">
        <ele>115.01489257812</ele>
        <time>2012-04-17T11:58:56Z</time>
      </trkpt>
      <trkpt lat="48.2126" lon="-3.12922">
        <ele>115.97619628906</ele>
        <time>2012-04-17T11:59:16Z</time>
      </trkpt>
      <trkpt lat="48.21225" lon="-3.12982">
        <ele>116.9375</ele>
        <time>2012-04-17T11:59:35Z</time>
      </trkpt>
      <trkpt lat="48.21211" lon="-3.13009">
        <ele>115.97619628906</ele>
        <time>2012-04-17T11:59:52Z</time>
      </trkpt>
      <trkpt lat="48.21211" lon="-3.13009">
        <ele>115.97619628906</ele>
        <time>2012-04-17T12:00:01Z</time>
      </trkpt>
      <trkpt lat="48.21175" lon="-3.13016">
        <ele>115.97619628906</ele>
        <time>2012-04-17T12:00:15Z</time>
      </trkpt>
      <trkpt lat="48.21128" lon="-3.1298">
        <ele>115.97619628906</ele>
        <time>2012-04-17T12:00:32Z</time>
      </trkpt>
      <trkpt lat="48.21116" lon="-3.12973">
        <ele>117.41821289062</ele>
        <time>2012-04-17T12:00:44Z</time>
      </trkpt>
      <trkpt lat="48.21115" lon="-3.12972">
        <ele>115.97619628906</ele>
        <time>2012-04-17T12:01:09Z</time>
      </trkpt>
      <trkpt lat="48.21116" lon="-3.12971">
        <ele>115.97619628906</ele>
        <time>2012-04-17T12:04:21Z</time>
      </trkpt>
      <trkpt lat="48.21119" lon="-3.12965">
        <ele>115.97619628906</ele>
        <time>2012-04-17T12:04:26Z</time>
      </trkpt>
      <trkpt lat="48.21134" lon="-3.12969">
        <ele>117.41821289062</ele>
        <time>2012-04-17T12:04:44Z</time>
      </trkpt>
      <trkpt lat="48.21135" lon="-3.12973">
        <ele>116.9375</ele>
        <time>2012-04-17T12:09:57Z</time>
      </trkpt>
      <trkpt lat="48.21153" lon="-3.1299">
        <ele>117.41821289062</ele>
        <time>2012-04-17T12:10:11Z</time>
      </trkpt>
      <trkpt lat="48.21203" lon="-3.13005">
        <ele>118.37939453125</ele>
        <time>2012-04-17T12:10:31Z</time>
      </trkpt>
      <trkpt lat="48.21229" lon="-3.13027">
        <ele>117.89880371094</ele>
        <time>2012-04-17T12:10:42Z</time>
      </trkpt>
      <trkpt lat="48.21274" lon="-3.13087">
        <ele>119.3408203125</ele>
        <time>2012-04-17T12:11:00Z</time>
      </trkpt>
      <trkpt lat="48.21301" lon="-3.13111">
        <ele>116.9375</ele>
        <time>2012-04-17T12:11:10Z</time>
      </trkpt>
      <trkpt lat="48.2133" lon="-3.13193">
        <ele>115.01489257812</ele>
        <time>2012-04-17T12:11:25Z</time>
      </trkpt>
      <trkpt lat="48.21341" lon="-3.13226">
        <ele>115.01489257812</ele>
        <time>2012-04-17T12:11:34Z</time>
      </trkpt>
      <trkpt lat="48.21351" lon="-3.1327">
        <ele>116.9375</ele>
        <time>2012-04-17T12:11:43Z</time>
      </trkpt>
      <trkpt lat="48.21353" lon="-3.13334">
        <ele>119.3408203125</ele>
        <time>2012-04-17T12:11:58Z</time>
      </trkpt>
      <trkpt lat="48.21356" lon="-3.13408">
        <ele>120.78283691406</ele>
        <time>2012-04-17T12:12:14Z</time>
      </trkpt>
      <trkpt lat="48.21358" lon="-3.13471">
        <ele>120.30212402344</ele>
        <time>2012-04-17T12:12:27Z</time>
      </trkpt>
      <trkpt lat="48.21365" lon="-3.13547">
        <ele>118.86010742188</ele>
        <time>2012-04-17T12:12:41Z</time>
      </trkpt>
      <trkpt lat="48.21372" lon="-3.13627">
        <ele>118.37939453125</ele>
        <time>2012-04-17T12:12:57Z</time>
      </trkpt>
      <trkpt lat="48.21383" lon="-3.13706">
        <ele>116.9375</ele>
        <time>2012-04-17T12:13:11Z</time>
      </trkpt>
      <trkpt lat="48.214" lon="-3.13775">
        <ele>115.97619628906</ele>
        <time>2012-04-17T12:13:23Z</time>
      </trkpt>
      <trkpt lat="48.2141" lon="-3.13877">
        <ele>117.89880371094</ele>
        <time>2012-04-17T12:13:42Z</time>
      </trkpt>
      <trkpt lat="48.21415" lon="-3.13981">
        <ele>119.3408203125</ele>
        <time>2012-04-17T12:14:01Z</time>
      </trkpt>
      <trkpt lat="48.2142" lon="-3.14079">
        <ele>119.3408203125</ele>
        <time>2012-04-17T12:14:19Z</time>
      </trkpt>
      <trkpt lat="48.21421" lon="-3.14106">
        <ele>120.78283691406</ele>
        <time>2012-04-17T12:14:24Z</time>
      </trkpt>
      <trkpt lat="48.21422" lon="-3.14128">
        <ele>121.744140625</ele>
        <time>2012-04-17T12:14:28Z</time>
      </trkpt>
      <trkpt lat="48.21419" lon="-3.14206">
        <ele>125.10876464844</ele>
        <time>2012-04-17T12:14:43Z</time>
      </trkpt>
      <trkpt lat="48.21414" lon="-3.14279">
        <ele>118.37939453125</ele>
        <time>2012-04-17T12:14:57Z</time>
      </trkpt>
      <trkpt lat="48.21408" lon="-3.14362">
        <ele>119.3408203125</ele>
        <time>2012-04-17T12:15:12Z</time>
      </trkpt>
      <trkpt lat="48.21404" lon="-3.14405">
        <ele>121.744140625</ele>
        <time>2012-04-17T12:15:20Z</time>
      </trkpt>
      <trkpt lat="48.214" lon="-3.14456">
        <ele>122.70544433594</ele>
        <time>2012-04-17T12:15:29Z</time>
      </trkpt>
      <trkpt lat="48.21387" lon="-3.14551">
        <ele>122.70544433594</ele>
        <time>2012-04-17T12:15:45Z</time>
      </trkpt>
      <trkpt lat="48.2136" lon="-3.14664">
        <ele>120.78283691406</ele>
        <time>2012-04-17T12:16:07Z</time>
      </trkpt>
      <trkpt lat="48.2133" lon="-3.14785">
        <ele>121.744140625</ele>
        <time>2012-04-17T12:16:30Z</time>
      </trkpt>
      <trkpt lat="48.21307" lon="-3.14912">
        <ele>124.14733886719</ele>
        <time>2012-04-17T12:16:53Z</time>
      </trkpt>
      <trkpt lat="48.21293" lon="-3.15016">
        <ele>122.22473144531</ele>
        <time>2012-04-17T12:17:11Z</time>
      </trkpt>
      <trkpt lat="48.21272" lon="-3.15105">
        <ele>122.70544433594</ele>
        <time>2012-04-17T12:17:30Z</time>
      </trkpt>
      <trkpt lat="48.21239" lon="-3.15179">
        <ele>122.22473144531</ele>
        <time>2012-04-17T12:17:49Z</time>
      </trkpt>
      <trkpt lat="48.21215" lon="-3.1523">
        <ele>122.70544433594</ele>
        <time>2012-04-17T12:18:05Z</time>
      </trkpt>
      <trkpt lat="48.21181" lon="-3.1533">
        <ele>123.18615722656</ele>
        <time>2012-04-17T12:18:25Z</time>
      </trkpt>
      <trkpt lat="48.21173" lon="-3.15391">
        <ele>123.18615722656</ele>
        <time>2012-04-17T12:18:35Z</time>
      </trkpt>
      <trkpt lat="48.21171" lon="-3.1546">
        <ele>125.58935546875</ele>
        <time>2012-04-17T12:18:46Z</time>
      </trkpt>
      <trkpt lat="48.21195" lon="-3.15483">
        <ele>127.51196289062</ele>
        <time>2012-04-17T12:18:51Z</time>
      </trkpt>
      <trkpt lat="48.21199" lon="-3.15495">
        <ele>129.91528320312</ele>
        <time>2012-04-17T12:18:54Z</time>
      </trkpt>
      <trkpt lat="48.21201" lon="-3.15516">
        <ele>132.79931640625</ele>
        <time>2012-04-17T12:18:59Z</time>
      </trkpt>
      <trkpt lat="48.21207" lon="-3.15578">
        <ele>140.00915527344</ele>
        <time>2012-04-17T12:19:12Z</time>
      </trkpt>
      <trkpt lat="48.21214" lon="-3.15638">
        <ele>138.08654785156</ele>
        <time>2012-04-17T12:19:23Z</time>
      </trkpt>
      <trkpt lat="48.21222" lon="-3.15698">
        <ele>137.12524414062</ele>
        <time>2012-04-17T12:19:34Z</time>
      </trkpt>
      <trkpt lat="48.21228" lon="-3.1572">
        <ele>135.20251464844</ele>
        <time>2012-04-17T12:19:38Z</time>
      </trkpt>
      <trkpt lat="48.21219" lon="-3.1576">
        <ele>133.27990722656</ele>
        <time>2012-04-17T12:19:43Z</time>
      </trkpt>
      <trkpt lat="48.21247" lon="-3.15838">
        <ele>128.47338867188</ele>
        <time>2012-04-17T12:19:56Z</time>
      </trkpt>
      <trkpt lat="48.21325" lon="-3.15893">
        <ele>127.99255371094</ele>
        <time>2012-04-17T12:20:14Z</time>
      </trkpt>
      <trkpt lat="48.21371" lon="-3.15929">
        <ele>127.99255371094</ele>
        <time>2012-04-17T12:20:28Z</time>
      </trkpt>
      <trkpt lat="48.21405" lon="-3.1598">
        <ele>126.55065917969</ele>
        <time>2012-04-17T12:20:42Z</time>
      </trkpt>
      <trkpt lat="48.2144" lon="-3.16022">
        <ele>126.55065917969</ele>
        <time>2012-04-17T12:20:54Z</time>
      </trkpt>
      <trkpt lat="48.21479" lon="-3.16059">
        <ele>124.62805175781</ele>
        <time>2012-04-17T12:21:05Z</time>
      </trkpt>
      <trkpt lat="48.21533" lon="-3.16104">
        <ele>124.14733886719</ele>
        <time>2012-04-17T12:21:20Z</time>
      </trkpt>
      <trkpt lat="48.21575" lon="-3.16132">
        <ele>123.18615722656</ele>
        <time>2012-04-17T12:21:32Z</time>
      </trkpt>
      <trkpt lat="48.21641" lon="-3.16127">
        <ele>123.18615722656</ele>
        <time>2012-04-17T12:21:48Z</time>
      </trkpt>
      <trkpt lat="48.21725" lon="-3.16096">
        <ele>122.70544433594</ele>
        <time>2012-04-17T12:22:10Z</time>
      </trkpt>
      <trkpt lat="48.21802" lon="-3.16068">
        <ele>125.10876464844</ele>
        <time>2012-04-17T12:22:33Z</time>
      </trkpt>
      <trkpt lat="48.21864" lon="-3.16066">
        <ele>124.14733886719</ele>
        <time>2012-04-17T12:22:54Z</time>
      </trkpt>
      <trkpt lat="48.21908" lon="-3.16093">
        <ele>121.26354980469</ele>
        <time>2012-04-17T12:23:09Z</time>
      </trkpt>
      <trkpt lat="48.21929" lon="-3.16119">
        <ele>120.30212402344</ele>
        <time>2012-04-17T12:23:20Z</time>
      </trkpt>
      <trkpt lat="48.21942" lon="-3.16146">
        <ele>118.37939453125</ele>
        <time>2012-04-17T12:23:30Z</time>
      </trkpt>
      <trkpt lat="48.21955" lon="-3.16175">
        <ele>120.30212402344</ele>
        <time>2012-04-17T12:23:39Z</time>
      </trkpt>
      <trkpt lat="48.21955" lon="-3.16226">
        <ele>124.62805175781</ele>
        <time>2012-04-17T12:23:49Z</time>
      </trkpt>
      <trkpt lat="48.21953" lon="-3.16286">
        <ele>121.744140625</ele>
        <time>2012-04-17T12:24:03Z</time>
      </trkpt>
      <trkpt lat="48.21947" lon="-3.16359">
        <ele>123.18615722656</ele>
        <time>2012-04-17T12:24:19Z</time>
      </trkpt>
      <trkpt lat="48.21936" lon="-3.16414">
        <ele>122.70544433594</ele>
        <time>2012-04-17T12:24:31Z</time>
      </trkpt>
      <trkpt lat="48.21924" lon="-3.16478">
        <ele>124.14733886719</ele>
        <time>2012-04-17T12:24:45Z</time>
      </trkpt>
      <trkpt lat="48.21908" lon="-3.16523">
        <ele>127.03137207031</ele>
        <time>2012-04-17T12:24:55Z</time>
      </trkpt>
      <trkpt lat="48.21893" lon="-3.1658">
        <ele>120.78283691406</ele>
        <time>2012-04-17T12:25:07Z</time>
      </trkpt>
      <trkpt lat="48.21889" lon="-3.16624">
        <ele>121.26354980469</ele>
        <time>2012-04-17T12:25:14Z</time>
      </trkpt>
      <trkpt lat="48.21886" lon="-3.16663">
        <ele>122.70544433594</ele>
        <time>2012-04-17T12:25:20Z</time>
      </trkpt>
      <trkpt lat="48.21875" lon="-3.1671">
        <ele>119.82141113281</ele>
        <time>2012-04-17T12:25:29Z</time>
      </trkpt>
      <trkpt lat="48.21865" lon="-3.16789">
        <ele>122.22473144531</ele>
        <time>2012-04-17T12:25:43Z</time>
      </trkpt>
      <trkpt lat="48.21865" lon="-3.16855">
        <ele>124.62805175781</ele>
        <time>2012-04-17T12:25:54Z</time>
      </trkpt>
      <trkpt lat="48.21874" lon="-3.16908">
        <ele>127.99255371094</ele>
        <time>2012-04-17T12:26:04Z</time>
      </trkpt>
      <trkpt lat="48.21893" lon="-3.16992">
        <ele>129.91528320312</ele>
        <time>2012-04-17T12:26:18Z</time>
      </trkpt>
      <trkpt lat="48.21917" lon="-3.17041">
        <ele>124.62805175781</ele>
        <time>2012-04-17T12:26:32Z</time>
      </trkpt>
      <trkpt lat="48.2194" lon="-3.17063">
        <ele>124.14733886719</ele>
        <time>2012-04-17T12:26:41Z</time>
      </trkpt>
      <trkpt lat="48.21964" lon="-3.17086">
        <ele>122.22473144531</ele>
        <time>2012-04-17T12:26:51Z</time>
      </trkpt>
      <trkpt lat="48.21986" lon="-3.17107">
        <ele>122.70544433594</ele>
        <time>2012-04-17T12:26:58Z</time>
      </trkpt>
      <trkpt lat="48.22009" lon="-3.17134">
        <ele>127.51196289062</ele>
        <time>2012-04-17T12:27:07Z</time>
      </trkpt>
      <trkpt lat="48.22038" lon="-3.17162">
        <ele>129.91528320312</ele>
        <time>2012-04-17T12:27:16Z</time>
      </trkpt>
      <trkpt lat="48.22065" lon="-3.17174">
        <ele>135.20251464844</ele>
        <time>2012-04-17T12:27:25Z</time>
      </trkpt>
      <trkpt lat="48.22072" lon="-3.17177">
        <ele>136.16394042969</ele>
        <time>2012-04-17T12:27:28Z</time>
      </trkpt>
      <trkpt lat="48.22115" lon="-3.17182">
        <ele>138.56726074219</ele>
        <time>2012-04-17T12:27:39Z</time>
      </trkpt>
      <trkpt lat="48.22177" lon="-3.17187">
        <ele>133.76049804688</ele>
        <time>2012-04-17T12:27:56Z</time>
      </trkpt>
      <trkpt lat="48.22242" lon="-3.17193">
        <ele>132.79931640625</ele>
        <time>2012-04-17T12:28:15Z</time>
      </trkpt>
      <trkpt lat="48.22266" lon="-3.17195">
        <ele>131.837890625</ele>
        <time>2012-04-17T12:28:22Z</time>
      </trkpt>
      <trkpt lat="48.22293" lon="-3.17208">
        <ele>131.35729980469</ele>
        <time>2012-04-17T12:28:31Z</time>
      </trkpt>
      <trkpt lat="48.22319" lon="-3.17227">
        <ele>131.35729980469</ele>
        <time>2012-04-17T12:28:41Z</time>
      </trkpt>
      <trkpt lat="48.22382" lon="-3.17273">
        <ele>133.27990722656</ele>
        <time>2012-04-17T12:29:00Z</time>
      </trkpt>
      <trkpt lat="48.22434" lon="-3.1731">
        <ele>131.35729980469</ele>
        <time>2012-04-17T12:29:16Z</time>
      </trkpt>
      <trkpt lat="48.22436" lon="-3.17312">
        <ele>129.91528320312</ele>
        <time>2012-04-17T12:29:27Z</time>
      </trkpt>
      <trkpt lat="48.22531" lon="-3.17324">
        <ele>126.06994628906</ele>
        <time>2012-04-17T12:29:39Z</time>
      </trkpt>
      <trkpt lat="48.22483" lon="-3.17452">
        <ele>125.58935546875</ele>
        <time>2012-04-17T12:29:57Z</time>
      </trkpt>
      <trkpt lat="48.22477" lon="-3.17529">
        <ele>126.06994628906</ele>
        <time>2012-04-17T12:30:13Z</time>
      </trkpt>
      <trkpt lat="48.22472" lon="-3.17607">
        <ele>126.55065917969</ele>
        <time>2012-04-17T12:30:29Z</time>
      </trkpt>
      <trkpt lat="48.2245" lon="-3.17708">
        <ele>127.99255371094</ele>
        <time>2012-04-17T12:30:50Z</time>
      </trkpt>
      <trkpt lat="48.22444" lon="-3.17801">
        <ele>129.43469238281</ele>
        <time>2012-04-17T12:31:10Z</time>
      </trkpt>
      <trkpt lat="48.22442" lon="-3.17821">
        <ele>130.39599609375</ele>
        <time>2012-04-17T12:31:22Z</time>
      </trkpt>
      <trkpt lat="48.2244" lon="-3.17846">
        <ele>130.39599609375</ele>
        <time>2012-04-17T12:32:28Z</time>
      </trkpt>
      <trkpt lat="48.2244" lon="-3.17913">
        <ele>129.43469238281</ele>
        <time>2012-04-17T12:32:43Z</time>
      </trkpt>
      <trkpt lat="48.22449" lon="-3.18008">
        <ele>128.47338867188</ele>
        <time>2012-04-17T12:33:03Z</time>
      </trkpt>
      <trkpt lat="48.22475" lon="-3.18125">
        <ele>127.99255371094</ele>
        <time>2012-04-17T12:33:25Z</time>
      </trkpt>
      <trkpt lat="48.22504" lon="-3.18235">
        <ele>128.9541015625</ele>
        <time>2012-04-17T12:33:46Z</time>
      </trkpt>
      <trkpt lat="48.22537" lon="-3.18366">
        <ele>128.47338867188</ele>
        <time>2012-04-17T12:34:12Z</time>
      </trkpt>
      <trkpt lat="48.22573" lon="-3.18488">
        <ele>128.47338867188</ele>
        <time>2012-04-17T12:34:35Z</time>
      </trkpt>
      <trkpt lat="48.22599" lon="-3.18595">
        <ele>126.55065917969</ele>
        <time>2012-04-17T12:34:55Z</time>
      </trkpt>
      <trkpt lat="48.22629" lon="-3.18706">
        <ele>126.55065917969</ele>
        <time>2012-04-17T12:35:15Z</time>
      </trkpt>
      <trkpt lat="48.22628" lon="-3.18784">
        <ele>126.55065917969</ele>
        <time>2012-04-17T12:35:30Z</time>
      </trkpt>
      <trkpt lat="48.22607" lon="-3.18834">
        <ele>127.51196289062</ele>
        <time>2012-04-17T12:35:44Z</time>
      </trkpt>
      <trkpt lat="48.22553" lon="-3.18909">
        <ele>129.91528320312</ele>
        <time>2012-04-17T12:36:05Z</time>
      </trkpt>
      <trkpt lat="48.22531" lon="-3.18945">
        <ele>130.87670898438</ele>
        <time>2012-04-17T12:36:16Z</time>
      </trkpt>
      <trkpt lat="48.22514" lon="-3.18995">
        <ele>128.47338867188</ele>
        <time>2012-04-17T12:36:26Z</time>
      </trkpt>
      <trkpt lat="48.22499" lon="-3.19087">
        <ele>128.9541015625</ele>
        <time>2012-04-17T12:36:42Z</time>
      </trkpt>
      <trkpt lat="48.22474" lon="-3.19148">
        <ele>128.9541015625</ele>
        <time>2012-04-17T12:36:57Z</time>
      </trkpt>
      <trkpt lat="48.22444" lon="-3.19212">
        <ele>128.9541015625</ele>
        <time>2012-04-17T12:37:13Z</time>
      </trkpt>
      <trkpt lat="48.22387" lon="-3.19293">
        <ele>127.99255371094</ele>
        <time>2012-04-17T12:37:36Z</time>
      </trkpt>
      <trkpt lat="48.22335" lon="-3.19368">
        <ele>127.03137207031</ele>
        <time>2012-04-17T12:37:57Z</time>
      </trkpt>
      <trkpt lat="48.22292" lon="-3.19443">
        <ele>126.55065917969</ele>
        <time>2012-04-17T12:38:16Z</time>
      </trkpt>
      <trkpt lat="48.22268" lon="-3.19529">
        <ele>124.62805175781</ele>
        <time>2012-04-17T12:38:33Z</time>
      </trkpt>
      <trkpt lat="48.22245" lon="-3.19583">
        <ele>122.22473144531</ele>
        <time>2012-04-17T12:38:47Z</time>
      </trkpt>
      <trkpt lat="48.22226" lon="-3.19623">
        <ele>123.18615722656</ele>
        <time>2012-04-17T12:39:02Z</time>
      </trkpt>
      <trkpt lat="48.2222" lon="-3.19651">
        <ele>123.18615722656</ele>
        <time>2012-04-17T12:39:18Z</time>
      </trkpt>
      <trkpt lat="48.22195" lon="-3.19711">
        <ele>124.14733886719</ele>
        <time>2012-04-17T12:39:32Z</time>
      </trkpt>
      <trkpt lat="48.22158" lon="-3.19757">
        <ele>123.66674804688</ele>
        <time>2012-04-17T12:39:46Z</time>
      </trkpt>
      <trkpt lat="48.22118" lon="-3.19809">
        <ele>125.10876464844</ele>
        <time>2012-04-17T12:40:01Z</time>
      </trkpt>
      <trkpt lat="48.22092" lon="-3.19839">
        <ele>124.14733886719</ele>
        <time>2012-04-17T12:40:11Z</time>
      </trkpt>
      <trkpt lat="48.22056" lon="-3.1989">
        <ele>125.10876464844</ele>
        <time>2012-04-17T12:40:24Z</time>
      </trkpt>
      <trkpt lat="48.2202" lon="-3.19966">
        <ele>129.43469238281</ele>
        <time>2012-04-17T12:40:41Z</time>
      </trkpt>
      <trkpt lat="48.21956" lon="-3.20103">
        <ele>130.87670898438</ele>
        <time>2012-04-17T12:41:12Z</time>
      </trkpt>
      <trkpt lat="48.21901" lon="-3.20221">
        <ele>131.837890625</ele>
        <time>2012-04-17T12:41:39Z</time>
      </trkpt>
      <trkpt lat="48.21858" lon="-3.20315">
        <ele>130.87670898438</ele>
        <time>2012-04-17T12:42:01Z</time>
      </trkpt>
      <trkpt lat="48.21818" lon="-3.20407">
        <ele>131.837890625</ele>
        <time>2012-04-17T12:42:24Z</time>
      </trkpt>
      <trkpt lat="48.21795" lon="-3.20469">
        <ele>132.79931640625</ele>
        <time>2012-04-17T12:42:45Z</time>
      </trkpt>
      <trkpt lat="48.21783" lon="-3.20505">
        <ele>133.27990722656</ele>
        <time>2012-04-17T12:43:00Z</time>
      </trkpt>
      <trkpt lat="48.21783" lon="-3.20507">
        <ele>132.31860351562</ele>
        <time>2012-04-17T12:43:45Z</time>
      </trkpt>
      <trkpt lat="48.21776" lon="-3.20537">
        <ele>130.87670898438</ele>
        <time>2012-04-17T13:01:59Z</time>
      </trkpt>
      <trkpt lat="48.21729" lon="-3.20585">
        <ele>129.43469238281</ele>
        <time>2012-04-17T13:02:13Z</time>
      </trkpt>
      <trkpt lat="48.21701" lon="-3.20638">
        <ele>128.9541015625</ele>
        <time>2012-04-17T13:02:26Z</time>
      </trkpt>
      <trkpt lat="48.21675" lon="-3.20684">
        <ele>128.9541015625</ele>
        <time>2012-04-17T13:02:37Z</time>
      </trkpt>
      <trkpt lat="48.21653" lon="-3.20724">
        <ele>129.91528320312</ele>
        <time>2012-04-17T13:02:47Z</time>
      </trkpt>
      <trkpt lat="48.21629" lon="-3.20766">
        <ele>131.837890625</ele>
        <time>2012-04-17T13:02:57Z</time>
      </trkpt>
      <trkpt lat="48.21594" lon="-3.20828">
        <ele>132.31860351562</ele>
        <time>2012-04-17T13:03:10Z</time>
      </trkpt>
      <trkpt lat="48.21553" lon="-3.20893">
        <ele>131.35729980469</ele>
        <time>2012-04-17T13:03:26Z</time>
      </trkpt>
      <trkpt lat="48.21506" lon="-3.2095">
        <ele>130.39599609375</ele>
        <time>2012-04-17T13:03:42Z</time>
      </trkpt>
      <trkpt lat="48.21445" lon="-3.21017">
        <ele>132.79931640625</ele>
        <time>2012-04-17T13:04:01Z</time>
      </trkpt>
      <trkpt lat="48.21402" lon="-3.2106">
        <ele>132.31860351562</ele>
        <time>2012-04-17T13:04:15Z</time>
      </trkpt>
      <trkpt lat="48.21332" lon="-3.21114">
        <ele>131.837890625</ele>
        <time>2012-04-17T13:04:34Z</time>
      </trkpt>
      <trkpt lat="48.21265" lon="-3.21167">
        <ele>130.87670898438</ele>
        <time>2012-04-17T13:04:53Z</time>
      </trkpt>
      <trkpt lat="48.21177" lon="-3.21236">
        <ele>130.87670898438</ele>
        <time>2012-04-17T13:05:17Z</time>
      </trkpt>
      <trkpt lat="48.21106" lon="-3.21292">
        <ele>131.35729980469</ele>
        <time>2012-04-17T13:05:37Z</time>
      </trkpt>
      <trkpt lat="48.21075" lon="-3.21316">
        <ele>131.837890625</ele>
        <time>2012-04-17T13:05:46Z</time>
      </trkpt>
      <trkpt lat="48.21018" lon="-3.21348">
        <ele>134.2412109375</ele>
        <time>2012-04-17T13:06:07Z</time>
      </trkpt>
      <trkpt lat="48.21001" lon="-3.2135">
        <ele>135.68310546875</ele>
        <time>2012-04-17T13:06:19Z</time>
      </trkpt>
      <trkpt lat="48.20994" lon="-3.21414">
        <ele>136.16394042969</ele>
        <time>2012-04-17T13:06:24Z</time>
      </trkpt>
      <trkpt lat="48.20998" lon="-3.21423">
        <ele>136.16394042969</ele>
        <time>2012-04-17T13:06:26Z</time>
      </trkpt>
      <trkpt lat="48.2102" lon="-3.21479">
        <ele>136.16394042969</ele>
        <time>2012-04-17T13:06:31Z</time>
      </trkpt>
      <trkpt lat="48.20998" lon="-3.21503">
        <ele>136.16394042969</ele>
        <time>2012-04-17T13:06:42Z</time>
      </trkpt>
      <trkpt lat="48.20988" lon="-3.21513">
        <ele>136.16394042969</ele>
        <time>2012-04-17T13:06:46Z</time>
      </trkpt>
      <trkpt lat="48.20935" lon="-3.2157">
        <ele>134.72192382812</ele>
        <time>2012-04-17T13:07:07Z</time>
      </trkpt>
      <trkpt lat="48.20863" lon="-3.21649">
        <ele>135.20251464844</ele>
        <time>2012-04-17T13:07:30Z</time>
      </trkpt>
      <trkpt lat="48.20792" lon="-3.21725">
        <ele>135.68310546875</ele>
        <time>2012-04-17T13:07:53Z</time>
      </trkpt>
      <trkpt lat="48.20739" lon="-3.21783">
        <ele>136.16394042969</ele>
        <time>2012-04-17T13:08:11Z</time>
      </trkpt>
      <trkpt lat="48.20675" lon="-3.21852">
        <ele>134.2412109375</ele>
        <time>2012-04-17T13:08:32Z</time>
      </trkpt>
      <trkpt lat="48.20639" lon="-3.21938">
        <ele>134.72192382812</ele>
        <time>2012-04-17T13:08:53Z</time>
      </trkpt>
      <trkpt lat="48.20614" lon="-3.2204">
        <ele>135.20251464844</ele>
        <time>2012-04-17T13:09:14Z</time>
      </trkpt>
      <trkpt lat="48.20583" lon="-3.22177">
        <ele>135.20251464844</ele>
        <time>2012-04-17T13:09:40Z</time>
      </trkpt>
      <trkpt lat="48.20574" lon="-3.22245">
        <ele>134.72192382812</ele>
        <time>2012-04-17T13:09:55Z</time>
      </trkpt>
      <trkpt lat="48.20588" lon="-3.22294">
        <ele>136.64465332031</ele>
        <time>2012-04-17T13:10:05Z</time>
      </trkpt>
      <trkpt lat="48.20606" lon="-3.22347">
        <ele>137.12524414062</ele>
        <time>2012-04-17T13:10:17Z</time>
      </trkpt>
      <trkpt lat="48.20643" lon="-3.22457">
        <ele>137.60583496094</ele>
        <time>2012-04-17T13:10:40Z</time>
      </trkpt>
      <trkpt lat="48.20677" lon="-3.22559">
        <ele>137.12524414062</ele>
        <time>2012-04-17T13:11:01Z</time>
      </trkpt>
      <trkpt lat="48.20718" lon="-3.22695">
        <ele>135.20251464844</ele>
        <time>2012-04-17T13:11:27Z</time>
      </trkpt>
      <trkpt lat="48.20741" lon="-3.22804">
        <ele>133.27990722656</ele>
        <time>2012-04-17T13:11:47Z</time>
      </trkpt>
      <trkpt lat="48.20759" lon="-3.22895">
        <ele>132.31860351562</ele>
        <time>2012-04-17T13:12:04Z</time>
      </trkpt>
      <trkpt lat="48.20773" lon="-3.22968">
        <ele>133.76049804688</ele>
        <time>2012-04-17T13:12:19Z</time>
      </trkpt>
      <trkpt lat="48.20782" lon="-3.23015">
        <ele>132.79931640625</ele>
        <time>2012-04-17T13:12:28Z</time>
      </trkpt>
      <trkpt lat="48.20788" lon="-3.23106">
        <ele>132.79931640625</ele>
        <time>2012-04-17T13:12:43Z</time>
      </trkpt>
      <trkpt lat="48.20793" lon="-3.23201">
        <ele>136.16394042969</ele>
        <time>2012-04-17T13:12:59Z</time>
      </trkpt>
      <trkpt lat="48.20797" lon="-3.23267">
        <ele>138.08654785156</ele>
        <time>2012-04-17T13:13:10Z</time>
      </trkpt>
      <trkpt lat="48.20801" lon="-3.23342">
        <ele>137.60583496094</ele>
        <time>2012-04-17T13:13:23Z</time>
      </trkpt>
      <trkpt lat="48.20796" lon="-3.23408">
        <ele>136.64465332031</ele>
        <time>2012-04-17T13:13:34Z</time>
      </trkpt>
      <trkpt lat="48.20795" lon="-3.23427">
        <ele>136.16394042969</ele>
        <time>2012-04-17T13:13:37Z</time>
      </trkpt>
      <trkpt lat="48.20785" lon="-3.23495">
        <ele>134.72192382812</ele>
        <time>2012-04-17T13:13:49Z</time>
      </trkpt>
      <trkpt lat="48.20748" lon="-3.23546">
        <ele>136.16394042969</ele>
        <time>2012-04-17T13:14:02Z</time>
      </trkpt>
      <trkpt lat="48.20708" lon="-3.23597">
        <ele>138.08654785156</ele>
        <time>2012-04-17T13:14:17Z</time>
      </trkpt>
      <trkpt lat="48.20668" lon="-3.23649">
        <ele>141.45104980469</ele>
        <time>2012-04-17T13:14:33Z</time>
      </trkpt>
      <trkpt lat="48.20619" lon="-3.23695">
        <ele>139.0478515625</ele>
        <time>2012-04-17T13:14:48Z</time>
      </trkpt>
      <trkpt lat="48.20571" lon="-3.23738">
        <ele>141.93176269531</ele>
        <time>2012-04-17T13:15:03Z</time>
      </trkpt>
      <trkpt lat="48.20501" lon="-3.23766">
        <ele>140.97045898438</ele>
        <time>2012-04-17T13:15:20Z</time>
      </trkpt>
      <trkpt lat="48.20405" lon="-3.23738">
        <ele>140.00915527344</ele>
        <time>2012-04-17T13:15:43Z</time>
      </trkpt>
      <trkpt lat="48.20315" lon="-3.2372">
        <ele>139.52844238281</ele>
        <time>2012-04-17T13:16:07Z</time>
      </trkpt>
      <trkpt lat="48.20266" lon="-3.23732">
        <ele>137.60583496094</ele>
        <time>2012-04-17T13:16:23Z</time>
      </trkpt>
      <trkpt lat="48.20217" lon="-3.23759">
        <ele>140.00915527344</ele>
        <time>2012-04-17T13:16:42Z</time>
      </trkpt>
      <trkpt lat="48.20158" lon="-3.23819">
        <ele>140.48986816406</ele>
        <time>2012-04-17T13:17:04Z</time>
      </trkpt>
      <trkpt lat="48.20097" lon="-3.23882">
        <ele>140.00915527344</ele>
        <time>2012-04-17T13:17:26Z</time>
      </trkpt>
      <trkpt lat="48.20042" lon="-3.23939">
        <ele>141.45104980469</ele>
        <time>2012-04-17T13:17:44Z</time>
      </trkpt>
      <trkpt lat="48.1998" lon="-3.24003">
        <ele>141.45104980469</ele>
        <time>2012-04-17T13:18:04Z</time>
      </trkpt>
      <trkpt lat="48.19894" lon="-3.24082">
        <ele>139.52844238281</ele>
        <time>2012-04-17T13:18:31Z</time>
      </trkpt>
      <trkpt lat="48.19845" lon="-3.24125">
        <ele>139.52844238281</ele>
        <time>2012-04-17T13:18:45Z</time>
      </trkpt>
      <trkpt lat="48.1979" lon="-3.24175">
        <ele>139.52844238281</ele>
        <time>2012-04-17T13:19:02Z</time>
      </trkpt>
      <trkpt lat="48.19779" lon="-3.24185">
        <ele>138.56726074219</ele>
        <time>2012-04-17T13:19:07Z</time>
      </trkpt>
      <trkpt lat="48.19745" lon="-3.24215">
        <ele>138.56726074219</ele>
        <time>2012-04-17T13:19:21Z</time>
      </trkpt>
      <trkpt lat="48.19701" lon="-3.24255">
        <ele>141.45104980469</ele>
        <time>2012-04-17T13:19:40Z</time>
      </trkpt>
      <trkpt lat="48.1969" lon="-3.24265">
        <ele>142.41247558594</ele>
        <time>2012-04-17T13:19:54Z</time>
      </trkpt>
      <trkpt lat="48.19676" lon="-3.24277">
        <ele>141.45104980469</ele>
        <time>2012-04-17T13:21:42Z</time>
      </trkpt>
      <trkpt lat="48.19637" lon="-3.24215">
        <ele>141.45104980469</ele>
        <time>2012-04-17T13:21:52Z</time>
      </trkpt>
      <trkpt lat="48.19637" lon="-3.24214">
        <ele>141.93176269531</ele>
        <time>2012-04-17T13:22:33Z</time>
      </trkpt>
      <trkpt lat="48.19637" lon="-3.24214">
        <ele>142.41247558594</ele>
        <time>2012-04-17T13:25:44Z</time>
      </trkpt>
      <trkpt lat="48.19637" lon="-3.24214">
        <ele>142.41247558594</ele>
        <time>2012-04-17T13:26:46Z</time>
      </trkpt>
      <trkpt lat="48.19637" lon="-3.24214">
        <ele>142.41247558594</ele>
        <time>2012-04-17T13:30:03Z</time>
      </trkpt>
      <trkpt lat="48.19629" lon="-3.24226">
        <ele>142.41247558594</ele>
        <time>2012-04-17T13:30:10Z</time>
      </trkpt>
      <trkpt lat="48.19595" lon="-3.24236">
        <ele>141.45104980469</ele>
        <time>2012-04-17T13:30:23Z</time>
      </trkpt>
      <trkpt lat="48.19548" lon="-3.24254">
        <ele>140.00915527344</ele>
        <time>2012-04-17T13:30:38Z</time>
      </trkpt>
      <trkpt lat="48.19499" lon="-3.24291">
        <ele>137.60583496094</ele>
        <time>2012-04-17T13:30:54Z</time>
      </trkpt>
      <trkpt lat="48.19474" lon="-3.24341">
        <ele>136.64465332031</ele>
        <time>2012-04-17T13:31:06Z</time>
      </trkpt>
      <trkpt lat="48.19438" lon="-3.24435">
        <ele>138.56726074219</ele>
        <time>2012-04-17T13:31:25Z</time>
      </trkpt>
      <trkpt lat="48.19439" lon="-3.24531">
        <ele>138.08654785156</ele>
        <time>2012-04-17T13:31:42Z</time>
      </trkpt>
      <trkpt lat="48.19454" lon="-3.24684">
        <ele>136.16394042969</ele>
        <time>2012-04-17T13:32:09Z</time>
      </trkpt>
      <trkpt lat="48.19463" lon="-3.24782">
        <ele>140.00915527344</ele>
        <time>2012-04-17T13:32:27Z</time>
      </trkpt>
      <trkpt lat="48.19473" lon="-3.24877">
        <ele>137.12524414062</ele>
        <time>2012-04-17T13:32:45Z</time>
      </trkpt>
      <trkpt lat="48.19481" lon="-3.24966">
        <ele>137.60583496094</ele>
        <time>2012-04-17T13:33:03Z</time>
      </trkpt>
      <trkpt lat="48.19494" lon="-3.25059">
        <ele>138.08654785156</ele>
        <time>2012-04-17T13:33:23Z</time>
      </trkpt>
      <trkpt lat="48.19519" lon="-3.25194">
        <ele>137.60583496094</ele>
        <time>2012-04-17T13:33:50Z</time>
      </trkpt>
      <trkpt lat="48.19547" lon="-3.25343">
        <ele>136.64465332031</ele>
        <time>2012-04-17T13:34:18Z</time>
      </trkpt>
      <trkpt lat="48.19574" lon="-3.25501">
        <ele>137.60583496094</ele>
        <time>2012-04-17T13:34:46Z</time>
      </trkpt>
      <trkpt lat="48.19594" lon="-3.25611">
        <ele>136.16394042969</ele>
        <time>2012-04-17T13:35:05Z</time>
      </trkpt>
      <trkpt lat="48.1961" lon="-3.25697">
        <ele>137.60583496094</ele>
        <time>2012-04-17T13:35:24Z</time>
      </trkpt>
      <trkpt lat="48.19624" lon="-3.25769">
        <ele>139.0478515625</ele>
        <time>2012-04-17T13:35:40Z</time>
      </trkpt>
      <trkpt lat="48.19623" lon="-3.25848">
        <ele>139.0478515625</ele>
        <time>2012-04-17T13:35:56Z</time>
      </trkpt>
      <trkpt lat="48.19592" lon="-3.25888">
        <ele>141.93176269531</ele>
        <time>2012-04-17T13:36:09Z</time>
      </trkpt>
      <trkpt lat="48.1958" lon="-3.25899">
        <ele>144.81579589844</ele>
        <time>2012-04-17T13:36:16Z</time>
      </trkpt>
      <trkpt lat="48.19551" lon="-3.25924">
        <ele>150.58361816406</ele>
        <time>2012-04-17T13:36:33Z</time>
      </trkpt>
      <trkpt lat="48.19515" lon="-3.25961">
        <ele>151.06420898438</ele>
        <time>2012-04-17T13:36:50Z</time>
      </trkpt>
      <trkpt lat="48.19465" lon="-3.26015">
        <ele>152.02575683594</ele>
        <time>2012-04-17T13:37:10Z</time>
      </trkpt>
      <trkpt lat="48.19436" lon="-3.26066">
        <ele>150.58361816406</ele>
        <time>2012-04-17T13:37:27Z</time>
      </trkpt>
      <trkpt lat="48.19436" lon="-3.26074">
        <ele>150.58361816406</ele>
        <time>2012-04-17T13:37:41Z</time>
      </trkpt>
      <trkpt lat="48.19437" lon="-3.26099">
        <ele>149.62231445312</ele>
        <time>2012-04-17T13:39:54Z</time>
      </trkpt>
      <trkpt lat="48.19443" lon="-3.2612">
        <ele>148.66101074219</ele>
        <time>2012-04-17T13:40:08Z</time>
      </trkpt>
      <trkpt lat="48.19449" lon="-3.2613">
        <ele>148.66101074219</ele>
        <time>2012-04-17T13:41:15Z</time>
      </trkpt>
      <trkpt lat="48.19468" lon="-3.2615">
        <ele>148.66101074219</ele>
        <time>2012-04-17T13:41:31Z</time>
      </trkpt>
      <trkpt lat="48.19469" lon="-3.26152">
        <ele>148.66101074219</ele>
        <time>2012-04-17T13:41:49Z</time>
      </trkpt>
      <trkpt lat="48.19469" lon="-3.26152">
        <ele>149.1416015625</ele>
        <time>2012-04-17T13:42:20Z</time>
      </trkpt>
      <trkpt lat="48.19469" lon="-3.26152">
        <ele>148.66101074219</ele>
        <time>2012-04-17T13:44:18Z</time>
      </trkpt>
      <trkpt lat="48.19494" lon="-3.26181">
        <ele>147.69970703125</ele>
        <time>2012-04-17T13:44:31Z</time>
      </trkpt>
      <trkpt lat="48.19542" lon="-3.26235">
        <ele>149.62231445312</ele>
        <time>2012-04-17T13:44:49Z</time>
      </trkpt>
      <trkpt lat="48.19573" lon="-3.26302">
        <ele>150.10302734375</ele>
        <time>2012-04-17T13:45:04Z</time>
      </trkpt>
      <trkpt lat="48.19585" lon="-3.26382">
        <ele>151.544921875</ele>
        <time>2012-04-17T13:45:19Z</time>
      </trkpt>
      <trkpt lat="48.19597" lon="-3.26476">
        <ele>150.10302734375</ele>
        <time>2012-04-17T13:45:36Z</time>
      </trkpt>
      <trkpt lat="48.19606" lon="-3.26562">
        <ele>149.1416015625</ele>
        <time>2012-04-17T13:45:54Z</time>
      </trkpt>
      <trkpt lat="48.19609" lon="-3.26576">
        <ele>150.58361816406</ele>
        <time>2012-04-17T13:46:00Z</time>
      </trkpt>
      <trkpt lat="48.19626" lon="-3.26645">
        <ele>152.02575683594</ele>
        <time>2012-04-17T13:46:16Z</time>
      </trkpt>
      <trkpt lat="48.19649" lon="-3.26738">
        <ele>149.62231445312</ele>
        <time>2012-04-17T13:46:34Z</time>
      </trkpt>
      <trkpt lat="48.1966" lon="-3.26785">
        <ele>151.06420898438</ele>
        <time>2012-04-17T13:46:47Z</time>
      </trkpt>
      <trkpt lat="48.19661" lon="-3.2679">
        <ele>151.06420898438</ele>
        <time>2012-04-17T13:46:49Z</time>
      </trkpt>
      <trkpt lat="48.19664" lon="-3.26794">
        <ele>151.544921875</ele>
        <time>2012-04-17T13:46:51Z</time>
      </trkpt>
      <trkpt lat="48.1966" lon="-3.26803">
        <ele>152.50634765625</ele>
        <time>2012-04-17T13:46:56Z</time>
      </trkpt>
      <trkpt lat="48.19654" lon="-3.26806">
        <ele>153.94836425781</ele>
        <time>2012-04-17T13:47:12Z</time>
      </trkpt>
      <trkpt lat="48.19654" lon="-3.26804">
        <ele>153.94836425781</ele>
        <time>2012-04-17T13:47:31Z</time>
      </trkpt>
      <trkpt lat="48.19661" lon="-3.26802">
        <ele>153.46765136719</ele>
        <time>2012-04-17T13:47:36Z</time>
      </trkpt>
      <trkpt lat="48.19667" lon="-3.26813">
        <ele>153.94836425781</ele>
        <time>2012-04-17T13:47:40Z</time>
      </trkpt>
      <trkpt lat="48.19684" lon="-3.26882">
        <ele>153.94836425781</ele>
        <time>2012-04-17T13:47:56Z</time>
      </trkpt>
      <trkpt lat="48.19691" lon="-3.26923">
        <ele>155.39025878906</ele>
        <time>2012-04-17T13:48:07Z</time>
      </trkpt>
      <trkpt lat="48.19691" lon="-3.26985">
        <ele>149.62231445312</ele>
        <time>2012-04-17T13:48:20Z</time>
      </trkpt>
      <trkpt lat="48.19673" lon="-3.27081">
        <ele>154.42895507812</ele>
        <time>2012-04-17T13:48:38Z</time>
      </trkpt>
      <trkpt lat="48.19652" lon="-3.27186">
        <ele>157.79357910156</ele>
        <time>2012-04-17T13:48:57Z</time>
      </trkpt>
      <trkpt lat="48.19671" lon="-3.27247">
        <ele>156.3515625</ele>
        <time>2012-04-17T13:49:10Z</time>
      </trkpt>
      <trkpt lat="48.19717" lon="-3.27272">
        <ele>155.87097167969</ele>
        <time>2012-04-17T13:49:24Z</time>
      </trkpt>
      <trkpt lat="48.1976" lon="-3.27234">
        <ele>153.94836425781</ele>
        <time>2012-04-17T13:49:38Z</time>
      </trkpt>
      <trkpt lat="48.19787" lon="-3.27163">
        <ele>153.94836425781</ele>
        <time>2012-04-17T13:49:52Z</time>
      </trkpt>
      <trkpt lat="48.19813" lon="-3.271">
        <ele>154.90954589844</ele>
        <time>2012-04-17T13:50:05Z</time>
      </trkpt>
      <trkpt lat="48.19852" lon="-3.27053">
        <ele>154.42895507812</ele>
        <time>2012-04-17T13:50:18Z</time>
      </trkpt>
      <trkpt lat="48.19877" lon="-3.27036">
        <ele>153.94836425781</ele>
        <time>2012-04-17T13:50:25Z</time>
      </trkpt>
      <trkpt lat="48.19948" lon="-3.27034">
        <ele>152.50634765625</ele>
        <time>2012-04-17T13:50:43Z</time>
      </trkpt>
      <trkpt lat="48.2" lon="-3.27047">
        <ele>153.94836425781</ele>
        <time>2012-04-17T13:50:58Z</time>
      </trkpt>
      <trkpt lat="48.20051" lon="-3.27079">
        <ele>153.46765136719</ele>
        <time>2012-04-17T13:51:13Z</time>
      </trkpt>
      <trkpt lat="48.20081" lon="-3.2713">
        <ele>156.3515625</ele>
        <time>2012-04-17T13:51:26Z</time>
      </trkpt>
      <trkpt lat="48.20118" lon="-3.27233">
        <ele>156.3515625</ele>
        <time>2012-04-17T13:51:47Z</time>
      </trkpt>
      <trkpt lat="48.20154" lon="-3.27344">
        <ele>157.31286621094</ele>
        <time>2012-04-17T13:52:08Z</time>
      </trkpt>
      <trkpt lat="48.20165" lon="-3.27417">
        <ele>164.52270507812</ele>
        <time>2012-04-17T13:52:22Z</time>
      </trkpt>
      <trkpt lat="48.20177" lon="-3.27545">
        <ele>167.88732910156</ele>
        <time>2012-04-17T13:52:44Z</time>
      </trkpt>
      <trkpt lat="48.20177" lon="-3.27551">
        <ele>167.88732910156</ele>
        <time>2012-04-17T13:52:45Z</time>
      </trkpt>
      <trkpt lat="48.20189" lon="-3.27658">
        <ele>166.4453125</ele>
        <time>2012-04-17T13:53:03Z</time>
      </trkpt>
      <trkpt lat="48.20205" lon="-3.27783">
        <ele>164.04211425781</ele>
        <time>2012-04-17T13:53:25Z</time>
      </trkpt>
      <trkpt lat="48.20222" lon="-3.27822">
        <ele>163.08081054688</ele>
        <time>2012-04-17T13:53:34Z</time>
      </trkpt>
      <trkpt lat="48.20278" lon="-3.27861">
        <ele>162.60009765625</ele>
        <time>2012-04-17T13:53:49Z</time>
      </trkpt>
      <trkpt lat="48.20325" lon="-3.2788">
        <ele>161.63891601562</ele>
        <time>2012-04-17T13:54:03Z</time>
      </trkpt>
      <trkpt lat="48.20378" lon="-3.27901">
        <ele>164.04211425781</ele>
        <time>2012-04-17T13:54:20Z</time>
      </trkpt>
      <trkpt lat="48.20398" lon="-3.27911">
        <ele>161.158203125</ele>
        <time>2012-04-17T13:54:34Z</time>
      </trkpt>
      <trkpt lat="48.20418" lon="-3.27921">
        <ele>160.19689941406</ele>
        <time>2012-04-17T13:54:52Z</time>
      </trkpt>
      <trkpt lat="48.20474" lon="-3.2794">
        <ele>158.75476074219</ele>
        <time>2012-04-17T13:55:09Z</time>
      </trkpt>
      <trkpt lat="48.20531" lon="-3.27973">
        <ele>157.79357910156</ele>
        <time>2012-04-17T13:55:26Z</time>
      </trkpt>
      <trkpt lat="48.20556" lon="-3.28021">
        <ele>157.79357910156</ele>
        <time>2012-04-17T13:55:39Z</time>
      </trkpt>
      <trkpt lat="48.20566" lon="-3.28111">
        <ele>157.31286621094</ele>
        <time>2012-04-17T13:55:55Z</time>
      </trkpt>
      <trkpt lat="48.20554" lon="-3.28241">
        <ele>157.79357910156</ele>
        <time>2012-04-17T13:56:18Z</time>
      </trkpt>
      <trkpt lat="48.20543" lon="-3.28364">
        <ele>157.31286621094</ele>
        <time>2012-04-17T13:56:39Z</time>
      </trkpt>
      <trkpt lat="48.20502" lon="-3.28445">
        <ele>157.79357910156</ele>
        <time>2012-04-17T13:56:56Z</time>
      </trkpt>
      <trkpt lat="48.20427" lon="-3.28492">
        <ele>157.31286621094</ele>
        <time>2012-04-17T13:57:17Z</time>
      </trkpt>
      <trkpt lat="48.20323" lon="-3.28544">
        <ele>155.87097167969</ele>
        <time>2012-04-17T13:57:44Z</time>
      </trkpt>
      <trkpt lat="48.20202" lon="-3.28604">
        <ele>156.3515625</ele>
        <time>2012-04-17T13:58:15Z</time>
      </trkpt>
      <trkpt lat="48.20133" lon="-3.28665">
        <ele>156.3515625</ele>
        <time>2012-04-17T13:58:35Z</time>
      </trkpt>
      <trkpt lat="48.20124" lon="-3.28693">
        <ele>155.87097167969</ele>
        <time>2012-04-17T13:58:40Z</time>
      </trkpt>
      <trkpt lat="48.20123" lon="-3.28818">
        <ele>157.31286621094</ele>
        <time>2012-04-17T13:59:00Z</time>
      </trkpt>
      <trkpt lat="48.20125" lon="-3.28883">
        <ele>158.27416992188</ele>
        <time>2012-04-17T13:59:11Z</time>
      </trkpt>
      <trkpt lat="48.20125" lon="-3.2895">
        <ele>156.83215332031</ele>
        <time>2012-04-17T13:59:23Z</time>
      </trkpt>
      <trkpt lat="48.20152" lon="-3.2902">
        <ele>153.94836425781</ele>
        <time>2012-04-17T13:59:36Z</time>
      </trkpt>
      <trkpt lat="48.20203" lon="-3.29108">
        <ele>154.90954589844</ele>
        <time>2012-04-17T13:59:56Z</time>
      </trkpt>
      <trkpt lat="48.2024" lon="-3.29167">
        <ele>155.87097167969</ele>
        <time>2012-04-17T14:00:13Z</time>
      </trkpt>
      <trkpt lat="48.20283" lon="-3.29241">
        <ele>157.31286621094</ele>
        <time>2012-04-17T14:00:33Z</time>
      </trkpt>
      <trkpt lat="48.20323" lon="-3.29314">
        <ele>157.31286621094</ele>
        <time>2012-04-17T14:00:50Z</time>
      </trkpt>
      <trkpt lat="48.20382" lon="-3.29411">
        <ele>156.3515625</ele>
        <time>2012-04-17T14:01:14Z</time>
      </trkpt>
      <trkpt lat="48.20442" lon="-3.29512">
        <ele>157.31286621094</ele>
        <time>2012-04-17T14:01:37Z</time>
      </trkpt>
      <trkpt lat="48.20464" lon="-3.29588">
        <ele>156.83215332031</ele>
        <time>2012-04-17T14:01:51Z</time>
      </trkpt>
      <trkpt lat="48.2047" lon="-3.29682">
        <ele>158.75476074219</ele>
        <time>2012-04-17T14:02:07Z</time>
      </trkpt>
      <trkpt lat="48.20476" lon="-3.29785">
        <ele>157.79357910156</ele>
        <time>2012-04-17T14:02:24Z</time>
      </trkpt>
      <trkpt lat="48.20485" lon="-3.29922">
        <ele>157.79357910156</ele>
        <time>2012-04-17T14:02:47Z</time>
      </trkpt>
      <trkpt lat="48.20492" lon="-3.30033">
        <ele>160.19689941406</ele>
        <time>2012-04-17T14:03:05Z</time>
      </trkpt>
      <trkpt lat="48.20502" lon="-3.30191">
        <ele>158.75476074219</ele>
        <time>2012-04-17T14:03:31Z</time>
      </trkpt>
      <trkpt lat="48.20504" lon="-3.30225">
        <ele>159.23547363281</ele>
        <time>2012-04-17T14:03:37Z</time>
      </trkpt>
      <trkpt lat="48.2051" lon="-3.30316">
        <ele>160.67749023438</ele>
        <time>2012-04-17T14:03:52Z</time>
      </trkpt>
      <trkpt lat="48.20511" lon="-3.30441">
        <ele>160.67749023438</ele>
        <time>2012-04-17T14:04:15Z</time>
      </trkpt>
      <trkpt lat="48.20512" lon="-3.30476">
        <ele>161.63891601562</ele>
        <time>2012-04-17T14:04:23Z</time>
      </trkpt>
      <trkpt lat="48.2051" lon="-3.30487">
        <ele>161.158203125</ele>
        <time>2012-04-17T14:04:34Z</time>
      </trkpt>
      <trkpt lat="48.2051" lon="-3.3049">
        <ele>161.158203125</ele>
        <time>2012-04-17T14:04:54Z</time>
      </trkpt>
      <trkpt lat="48.20508" lon="-3.30493">
        <ele>161.158203125</ele>
        <time>2012-04-17T14:05:14Z</time>
      </trkpt>
      <trkpt lat="48.20509" lon="-3.30495">
        <ele>160.67749023438</ele>
        <time>2012-04-17T14:08:54Z</time>
      </trkpt>
      <trkpt lat="48.2051" lon="-3.30509">
        <ele>161.63891601562</ele>
        <time>2012-04-17T14:09:04Z</time>
      </trkpt>
      <trkpt lat="48.2051" lon="-3.30529">
        <ele>161.158203125</ele>
        <time>2012-04-17T14:09:29Z</time>
      </trkpt>
      <trkpt lat="48.2051" lon="-3.30538">
        <ele>159.71618652344</ele>
        <time>2012-04-17T14:12:26Z</time>
      </trkpt>
      <trkpt lat="48.20509" lon="-3.30602">
        <ele>160.19689941406</ele>
        <time>2012-04-17T14:12:40Z</time>
      </trkpt>
      <trkpt lat="48.20517" lon="-3.30672">
        <ele>163.08081054688</ele>
        <time>2012-04-17T14:12:53Z</time>
      </trkpt>
      <trkpt lat="48.20544" lon="-3.30731">
        <ele>163.5615234375</ele>
        <time>2012-04-17T14:13:06Z</time>
      </trkpt>
      <trkpt lat="48.20585" lon="-3.30814">
        <ele>163.08081054688</ele>
        <time>2012-04-17T14:13:24Z</time>
      </trkpt>
      <trkpt lat="48.20619" lon="-3.3088">
        <ele>164.04211425781</ele>
        <time>2012-04-17T14:13:38Z</time>
      </trkpt>
      <trkpt lat="48.20664" lon="-3.30968">
        <ele>163.08081054688</ele>
        <time>2012-04-17T14:13:56Z</time>
      </trkpt>
      <trkpt lat="48.20718" lon="-3.31077">
        <ele>165.00341796875</ele>
        <time>2012-04-17T14:14:19Z</time>
      </trkpt>
      <trkpt lat="48.2076" lon="-3.31159">
        <ele>164.52270507812</ele>
        <time>2012-04-17T14:14:36Z</time>
      </trkpt>
      <trkpt lat="48.20788" lon="-3.31216">
        <ele>164.52270507812</ele>
        <time>2012-04-17T14:14:48Z</time>
      </trkpt>
      <trkpt lat="48.20822" lon="-3.31282">
        <ele>164.04211425781</ele>
        <time>2012-04-17T14:15:03Z</time>
      </trkpt>
      <trkpt lat="48.20866" lon="-3.31368">
        <ele>168.36804199219</ele>
        <time>2012-04-17T14:15:22Z</time>
      </trkpt>
      <trkpt lat="48.2088" lon="-3.31397">
        <ele>170.77136230469</ele>
        <time>2012-04-17T14:15:28Z</time>
      </trkpt>
      <trkpt lat="48.20933" lon="-3.31498">
        <ele>166.4453125</ele>
        <time>2012-04-17T14:15:48Z</time>
      </trkpt>
      <trkpt lat="48.20983" lon="-3.31601">
        <ele>167.88732910156</ele>
        <time>2012-04-17T14:16:09Z</time>
      </trkpt>
      <trkpt lat="48.21011" lon="-3.31652">
        <ele>167.88732910156</ele>
        <time>2012-04-17T14:16:20Z</time>
      </trkpt>
      <trkpt lat="48.21041" lon="-3.31707">
        <ele>166.92602539062</ele>
        <time>2012-04-17T14:16:36Z</time>
      </trkpt>
      <trkpt lat="48.21081" lon="-3.31788">
        <ele>164.04211425781</ele>
        <time>2012-04-17T14:16:56Z</time>
      </trkpt>
      <trkpt lat="48.21112" lon="-3.31872">
        <ele>163.08081054688</ele>
        <time>2012-04-17T14:17:14Z</time>
      </trkpt>
      <trkpt lat="48.21111" lon="-3.31945">
        <ele>164.52270507812</ele>
        <time>2012-04-17T14:17:28Z</time>
      </trkpt>
      <trkpt lat="48.21105" lon="-3.31969">
        <ele>165.00341796875</ele>
        <time>2012-04-17T14:17:36Z</time>
      </trkpt>
      <trkpt lat="48.21106" lon="-3.3198">
        <ele>165.00341796875</ele>
        <time>2012-04-17T14:17:40Z</time>
      </trkpt>
      <trkpt lat="48.21107" lon="-3.31987">
        <ele>165.00341796875</ele>
        <time>2012-04-17T14:17:42Z</time>
      </trkpt>
      <trkpt lat="48.21095" lon="-3.32078">
        <ele>163.5615234375</ele>
        <time>2012-04-17T14:18:00Z</time>
      </trkpt>
      <trkpt lat="48.21091" lon="-3.32131">
        <ele>162.60009765625</ele>
        <time>2012-04-17T14:18:16Z</time>
      </trkpt>
      <trkpt lat="48.21089" lon="-3.32135">
        <ele>160.67749023438</ele>
        <time>2012-04-17T14:18:58Z</time>
      </trkpt>
      <trkpt lat="48.21088" lon="-3.32137">
        <ele>160.67749023438</ele>
        <time>2012-04-17T14:19:08Z</time>
      </trkpt>
      <trkpt lat="48.21086" lon="-3.3214">
        <ele>161.158203125</ele>
        <time>2012-04-17T14:27:18Z</time>
      </trkpt>
      <trkpt lat="48.21086" lon="-3.32141">
        <ele>161.158203125</ele>
        <time>2012-04-17T14:27:21Z</time>
      </trkpt>
      <trkpt lat="48.21086" lon="-3.32147">
        <ele>160.67749023438</ele>
        <time>2012-04-17T14:27:25Z</time>
      </trkpt>
      <trkpt lat="48.21079" lon="-3.32201">
        <ele>161.63891601562</ele>
        <time>2012-04-17T14:27:39Z</time>
      </trkpt>
      <trkpt lat="48.21073" lon="-3.32247">
        <ele>164.52270507812</ele>
        <time>2012-04-17T14:27:49Z</time>
      </trkpt>
      <trkpt lat="48.21067" lon="-3.3231">
        <ele>165.00341796875</ele>
        <time>2012-04-17T14:28:01Z</time>
      </trkpt>
      <trkpt lat="48.2106" lon="-3.32399">
        <ele>161.63891601562</ele>
        <time>2012-04-17T14:28:16Z</time>
      </trkpt>
      <trkpt lat="48.21049" lon="-3.32483">
        <ele>159.71618652344</ele>
        <time>2012-04-17T14:28:31Z</time>
      </trkpt>
      <trkpt lat="48.21041" lon="-3.32545">
        <ele>159.71618652344</ele>
        <time>2012-04-17T14:28:42Z</time>
      </trkpt>
      <trkpt lat="48.21057" lon="-3.32635">
        <ele>161.158203125</ele>
        <time>2012-04-17T14:28:57Z</time>
      </trkpt>
      <trkpt lat="48.21073" lon="-3.32723">
        <ele>164.52270507812</ele>
        <time>2012-04-17T14:29:13Z</time>
      </trkpt>
      <trkpt lat="48.21078" lon="-3.32741">
        <ele>164.52270507812</ele>
        <time>2012-04-17T14:29:16Z</time>
      </trkpt>
      <trkpt lat="48.21088" lon="-3.32779">
        <ele>164.52270507812</ele>
        <time>2012-04-17T14:29:22Z</time>
      </trkpt>
      <trkpt lat="48.21092" lon="-3.32797">
        <ele>164.04211425781</ele>
        <time>2012-04-17T14:29:25Z</time>
      </trkpt>
      <trkpt lat="48.21113" lon="-3.32879">
        <ele>162.11950683594</ele>
        <time>2012-04-17T14:29:40Z</time>
      </trkpt>
      <trkpt lat="48.21119" lon="-3.329">
        <ele>161.158203125</ele>
        <time>2012-04-17T14:29:44Z</time>
      </trkpt>
      <trkpt lat="48.2115" lon="-3.32974">
        <ele>163.08081054688</ele>
        <time>2012-04-17T14:30:00Z</time>
      </trkpt>
      <trkpt lat="48.21209" lon="-3.33056">
        <ele>164.04211425781</ele>
        <time>2012-04-17T14:30:21Z</time>
      </trkpt>
      <trkpt lat="48.21244" lon="-3.33106">
        <ele>164.52270507812</ele>
        <time>2012-04-17T14:30:34Z</time>
      </trkpt>
      <trkpt lat="48.21298" lon="-3.33181">
        <ele>165.96472167969</ele>
        <time>2012-04-17T14:30:55Z</time>
      </trkpt>
      <trkpt lat="48.21338" lon="-3.33238">
        <ele>165.48413085938</ele>
        <time>2012-04-17T14:31:10Z</time>
      </trkpt>
      <trkpt lat="48.21378" lon="-3.33295">
        <ele>166.4453125</ele>
        <time>2012-04-17T14:31:24Z</time>
      </trkpt>
      <trkpt lat="48.21427" lon="-3.33361">
        <ele>166.92602539062</ele>
        <time>2012-04-17T14:31:42Z</time>
      </trkpt>
      <trkpt lat="48.21439" lon="-3.33364">
        <ele>167.40673828125</ele>
        <time>2012-04-17T14:31:49Z</time>
      </trkpt>
      <trkpt lat="48.21439" lon="-3.33357">
        <ele>168.36804199219</ele>
        <time>2012-04-17T14:32:08Z</time>
      </trkpt>
      <trkpt lat="48.21439" lon="-3.33302">
        <ele>168.36804199219</ele>
        <time>2012-04-17T14:32:25Z</time>
      </trkpt>
      <trkpt lat="48.21421" lon="-3.33211">
        <ele>172.21325683594</ele>
        <time>2012-04-17T14:32:50Z</time>
      </trkpt>
      <trkpt lat="48.21381" lon="-3.33128">
        <ele>174.61657714844</ele>
        <time>2012-04-17T14:33:13Z</time>
      </trkpt>
      <trkpt lat="48.21343" lon="-3.33052">
        <ele>175.09729003906</ele>
        <time>2012-04-17T14:33:34Z</time>
      </trkpt>
      <trkpt lat="48.21315" lon="-3.32937">
        <ele>175.09729003906</ele>
        <time>2012-04-17T14:33:55Z</time>
      </trkpt>
      <trkpt lat="48.21312" lon="-3.32773">
        <ele>171.25207519531</ele>
        <time>2012-04-17T14:34:14Z</time>
      </trkpt>
      <trkpt lat="48.21311" lon="-3.32459">
        <ele>170.29064941406</ele>
        <time>2012-04-17T14:34:46Z</time>
      </trkpt>
      <trkpt lat="48.21335" lon="-3.3235">
        <ele>171.25207519531</ele>
        <time>2012-04-17T14:35:02Z</time>
      </trkpt>
      <trkpt lat="48.21367" lon="-3.32316">
        <ele>170.29064941406</ele>
        <time>2012-04-17T14:35:10Z</time>
      </trkpt>
      <trkpt lat="48.21447" lon="-3.32294">
        <ele>169.81005859375</ele>
        <time>2012-04-17T14:35:26Z</time>
      </trkpt>
      <trkpt lat="48.21617" lon="-3.32277">
        <ele>169.32946777344</ele>
        <time>2012-04-17T14:35:58Z</time>
      </trkpt>
      <trkpt lat="48.21765" lon="-3.32262">
        <ele>167.88732910156</ele>
        <time>2012-04-17T14:36:26Z</time>
      </trkpt>
      <trkpt lat="48.21917" lon="-3.32249">
        <ele>168.36804199219</ele>
        <time>2012-04-17T14:36:55Z</time>
      </trkpt>
      <trkpt lat="48.22047" lon="-3.32251">
        <ele>168.84875488281</ele>
        <time>2012-04-17T14:37:21Z</time>
      </trkpt>
      <trkpt lat="48.22165" lon="-3.32293">
        <ele>168.84875488281</ele>
        <time>2012-04-17T14:37:46Z</time>
      </trkpt>
      <trkpt lat="48.22242" lon="-3.32324">
        <ele>172.21325683594</ele>
        <time>2012-04-17T14:38:05Z</time>
      </trkpt>
      <trkpt lat="48.22318" lon="-3.32336">
        <ele>174.61657714844</ele>
        <time>2012-04-17T14:38:26Z</time>
      </trkpt>
      <trkpt lat="48.22385" lon="-3.3233">
        <ele>176.53930664062</ele>
        <time>2012-04-17T14:38:49Z</time>
      </trkpt>
      <trkpt lat="48.22447" lon="-3.32321">
        <ele>178.94262695312</ele>
        <time>2012-04-17T14:39:14Z</time>
      </trkpt>
      <trkpt lat="48.22505" lon="-3.32311">
        <ele>181.82641601562</ele>
        <time>2012-04-17T14:39:39Z</time>
      </trkpt>
      <trkpt lat="48.22581" lon="-3.32299">
        <ele>185.67175292969</ele>
        <time>2012-04-17T14:40:12Z</time>
      </trkpt>
      <trkpt lat="48.22635" lon="-3.3229">
        <ele>189.51696777344</ele>
        <time>2012-04-17T14:40:37Z</time>
      </trkpt>
      <trkpt lat="48.22692" lon="-3.32282">
        <ele>191.92028808594</ele>
        <time>2012-04-17T14:41:04Z</time>
      </trkpt>
      <trkpt lat="48.22747" lon="-3.32273">
        <ele>194.32373046875</ele>
        <time>2012-04-17T14:41:31Z</time>
      </trkpt>
      <trkpt lat="48.22808" lon="-3.32264">
        <ele>197.68823242188</ele>
        <time>2012-04-17T14:42:00Z</time>
      </trkpt>
      <trkpt lat="48.22868" lon="-3.32254">
        <ele>201.05285644531</ele>
        <time>2012-04-17T14:42:28Z</time>
      </trkpt>
      <trkpt lat="48.22911" lon="-3.32246">
        <ele>203.45617675781</ele>
        <time>2012-04-17T14:42:50Z</time>
      </trkpt>
      <trkpt lat="48.22949" lon="-3.32236">
        <ele>205.37878417969</ele>
        <time>2012-04-17T14:43:09Z</time>
      </trkpt>
      <trkpt lat="48.22989" lon="-3.32223">
        <ele>206.82067871094</ele>
        <time>2012-04-17T14:43:29Z</time>
      </trkpt>
      <trkpt lat="48.2299" lon="-3.32223">
        <ele>206.82067871094</ele>
        <time>2012-04-17T14:43:47Z</time>
      </trkpt>
      <trkpt lat="48.2299" lon="-3.32223">
        <ele>206.82067871094</ele>
        <time>2012-04-17T14:43:56Z</time>
      </trkpt>
      <trkpt lat="48.23019" lon="-3.32212">
        <ele>208.74340820312</ele>
        <time>2012-04-17T14:44:09Z</time>
      </trkpt>
      <trkpt lat="48.23071" lon="-3.32197">
        <ele>210.18542480469</ele>
        <time>2012-04-17T14:44:28Z</time>
      </trkpt>
      <trkpt lat="48.23146" lon="-3.32175">
        <ele>209.70483398438</ele>
        <time>2012-04-17T14:44:49Z</time>
      </trkpt>
      <trkpt lat="48.23228" lon="-3.32115">
        <ele>207.30139160156</ele>
        <time>2012-04-17T14:45:11Z</time>
      </trkpt>
      <trkpt lat="48.23285" lon="-3.32022">
        <ele>202.97546386719</ele>
        <time>2012-04-17T14:45:29Z</time>
      </trkpt>
      <trkpt lat="48.23323" lon="-3.31964">
        <ele>202.49487304688</ele>
        <time>2012-04-17T14:45:40Z</time>
      </trkpt>
      <trkpt lat="48.23384" lon="-3.31933">
        <ele>204.41748046875</ele>
        <time>2012-04-17T14:45:57Z</time>
      </trkpt>
      <trkpt lat="48.23431" lon="-3.31946">
        <ele>207.30139160156</ele>
        <time>2012-04-17T14:46:17Z</time>
      </trkpt>
      <trkpt lat="48.23493" lon="-3.31985">
        <ele>209.70483398438</ele>
        <time>2012-04-17T14:46:37Z</time>
      </trkpt>
      <trkpt lat="48.23541" lon="-3.31973">
        <ele>211.14672851562</ele>
        <time>2012-04-17T14:46:55Z</time>
      </trkpt>
      <trkpt lat="48.23573" lon="-3.31963">
        <ele>213.0693359375</ele>
        <time>2012-04-17T14:47:14Z</time>
      </trkpt>
      <trkpt lat="48.23573" lon="-3.31963">
        <ele>214.51123046875</ele>
        <time>2012-04-17T14:47:31Z</time>
      </trkpt>
      <trkpt lat="48.23584" lon="-3.3193">
        <ele>214.99194335938</ele>
        <time>2012-04-17T14:47:35Z</time>
      </trkpt>
      <trkpt lat="48.23594" lon="-3.31864">
        <ele>216.43395996094</ele>
        <time>2012-04-17T14:47:51Z</time>
      </trkpt>
      <trkpt lat="48.23594" lon="-3.31864">
        <ele>216.43395996094</ele>
        <time>2012-04-17T14:48:05Z</time>
      </trkpt>
      <trkpt lat="48.23594" lon="-3.31864">
        <ele>214.99194335938</ele>
        <time>2012-04-17T15:01:44Z</time>
      </trkpt>
      <trkpt lat="48.23594" lon="-3.31864">
        <ele>214.99194335938</ele>
        <time>2012-04-17T15:01:48Z</time>
      </trkpt>
      <trkpt lat="48.23596" lon="-3.31848">
        <ele>214.51123046875</ele>
        <time>2012-04-17T15:01:50Z</time>
      </trkpt>
      <trkpt lat="48.23598" lon="-3.31837">
        <ele>213.0693359375</ele>
        <time>2012-04-17T15:02:02Z</time>
      </trkpt>
      <trkpt lat="48.23598" lon="-3.31823">
        <ele>213.55004882812</ele>
        <time>2012-04-17T15:02:06Z</time>
      </trkpt>
      <trkpt lat="48.23598" lon="-3.31767">
        <ele>214.99194335938</ele>
        <time>2012-04-17T15:02:22Z</time>
      </trkpt>
      <trkpt lat="48.23599" lon="-3.31758">
        <ele>215.47265625</ele>
        <time>2012-04-17T15:02:25Z</time>
      </trkpt>
      <trkpt lat="48.23586" lon="-3.31731">
        <ele>215.95324707031</ele>
        <time>2012-04-17T15:02:41Z</time>
      </trkpt>
      <trkpt lat="48.23584" lon="-3.31656">
        <ele>216.43395996094</ele>
        <time>2012-04-17T15:02:54Z</time>
      </trkpt>
      <trkpt lat="48.23602" lon="-3.31539">
        <ele>221.72119140625</ele>
        <time>2012-04-17T15:03:24Z</time>
      </trkpt>
      <trkpt lat="48.2362" lon="-3.31436">
        <ele>225.0859375</ele>
        <time>2012-04-17T15:03:50Z</time>
      </trkpt>
      <trkpt lat="48.23639" lon="-3.31315">
        <ele>230.373046875</ele>
        <time>2012-04-17T15:04:20Z</time>
      </trkpt>
      <trkpt lat="48.23653" lon="-3.31234">
        <ele>231.33435058594</ele>
        <time>2012-04-17T15:04:41Z</time>
      </trkpt>
      <trkpt lat="48.23678" lon="-3.31109">
        <ele>232.29577636719</ele>
        <time>2012-04-17T15:05:11Z</time>
      </trkpt>
      <trkpt lat="48.23654" lon="-3.31083">
        <ele>233.25708007812</ele>
        <time>2012-04-17T15:05:22Z</time>
      </trkpt>
      <trkpt lat="48.23597" lon="-3.31045">
        <ele>234.69909667969</ele>
        <time>2012-04-17T15:05:44Z</time>
      </trkpt>
      <trkpt lat="48.23522" lon="-3.31001">
        <ele>238.06359863281</ele>
        <time>2012-04-17T15:06:12Z</time>
      </trkpt>
      <trkpt lat="48.23443" lon="-3.30977">
        <ele>238.06359863281</ele>
        <time>2012-04-17T15:06:36Z</time>
      </trkpt>
      <trkpt lat="48.23367" lon="-3.30973">
        <ele>236.62170410156</ele>
        <time>2012-04-17T15:06:55Z</time>
      </trkpt>
      <trkpt lat="48.23349" lon="-3.3096">
        <ele>236.62170410156</ele>
        <time>2012-04-17T15:07:00Z</time>
      </trkpt>
      <trkpt lat="48.2332" lon="-3.30869">
        <ele>235.66027832031</ele>
        <time>2012-04-17T15:07:15Z</time>
      </trkpt>
      <trkpt lat="48.23316" lon="-3.30851">
        <ele>235.66027832031</ele>
        <time>2012-04-17T15:07:18Z</time>
      </trkpt>
      <trkpt lat="48.23316" lon="-3.3074">
        <ele>234.21838378906</ele>
        <time>2012-04-17T15:07:36Z</time>
      </trkpt>
      <trkpt lat="48.23307" lon="-3.30696">
        <ele>233.73767089844</ele>
        <time>2012-04-17T15:07:42Z</time>
      </trkpt>
      <trkpt lat="48.23296" lon="-3.30669">
        <ele>232.29577636719</ele>
        <time>2012-04-17T15:07:47Z</time>
      </trkpt>
      <trkpt lat="48.23282" lon="-3.30625">
        <ele>232.29577636719</ele>
        <time>2012-04-17T15:07:56Z</time>
      </trkpt>
      <trkpt lat="48.23272" lon="-3.30569">
        <ele>232.29577636719</ele>
        <time>2012-04-17T15:08:05Z</time>
      </trkpt>
      <trkpt lat="48.23273" lon="-3.30494">
        <ele>233.73767089844</ele>
        <time>2012-04-17T15:08:20Z</time>
      </trkpt>
      <trkpt lat="48.23275" lon="-3.3047">
        <ele>233.73767089844</ele>
        <time>2012-04-17T15:08:24Z</time>
      </trkpt>
      <trkpt lat="48.23277" lon="-3.30448">
        <ele>233.73767089844</ele>
        <time>2012-04-17T15:08:28Z</time>
      </trkpt>
      <trkpt lat="48.23248" lon="-3.30385">
        <ele>232.29577636719</ele>
        <time>2012-04-17T15:08:39Z</time>
      </trkpt>
      <trkpt lat="48.23235" lon="-3.30379">
        <ele>232.29577636719</ele>
        <time>2012-04-17T15:08:42Z</time>
      </trkpt>
      <trkpt lat="48.23155" lon="-3.30351">
        <ele>232.29577636719</ele>
        <time>2012-04-17T15:08:59Z</time>
      </trkpt>
      <trkpt lat="48.23076" lon="-3.30317">
        <ele>233.25708007812</ele>
        <time>2012-04-17T15:09:20Z</time>
      </trkpt>
      <trkpt lat="48.23048" lon="-3.30287">
        <ele>234.69909667969</ele>
        <time>2012-04-17T15:09:34Z</time>
      </trkpt>
      <trkpt lat="48.23048" lon="-3.30287">
        <ele>235.1796875</ele>
        <time>2012-04-17T15:09:46Z</time>
      </trkpt>
      <trkpt lat="48.23048" lon="-3.30287">
        <ele>235.1796875</ele>
        <time>2012-04-17T15:09:52Z</time>
      </trkpt>
      <trkpt lat="48.23038" lon="-3.3027">
        <ele>235.66027832031</ele>
        <time>2012-04-17T15:10:06Z</time>
      </trkpt>
      <trkpt lat="48.2304" lon="-3.30276">
        <ele>234.21838378906</ele>
        <time>2012-04-17T15:10:14Z</time>
      </trkpt>
      <trkpt lat="48.23042" lon="-3.30279">
        <ele>235.1796875</ele>
        <time>2012-04-17T15:10:19Z</time>
      </trkpt>
      <trkpt lat="48.23048" lon="-3.30252">
        <ele>235.1796875</ele>
        <time>2012-04-17T15:10:25Z</time>
      </trkpt>
      <trkpt lat="48.23039" lon="-3.30172">
        <ele>235.66027832031</ele>
        <time>2012-04-17T15:10:44Z</time>
      </trkpt>
      <trkpt lat="48.23032" lon="-3.30107">
        <ele>235.66027832031</ele>
        <time>2012-04-17T15:10:56Z</time>
      </trkpt>
      <trkpt lat="48.23052" lon="-3.3004">
        <ele>231.33435058594</ele>
        <time>2012-04-17T15:11:11Z</time>
      </trkpt>
      <trkpt lat="48.23088" lon="-3.29999">
        <ele>226.04711914062</ele>
        <time>2012-04-17T15:11:23Z</time>
      </trkpt>
      <trkpt lat="48.23117" lon="-3.29955">
        <ele>217.8759765625</ele>
        <time>2012-04-17T15:11:35Z</time>
      </trkpt>
      <trkpt lat="48.2312" lon="-3.29933">
        <ele>216.91467285156</ele>
        <time>2012-04-17T15:11:42Z</time>
      </trkpt>
      <trkpt lat="48.23137" lon="-3.29924">
        <ele>217.39538574219</ele>
        <time>2012-04-17T15:11:51Z</time>
      </trkpt>
      <trkpt lat="48.2316" lon="-3.29904">
        <ele>217.39538574219</ele>
        <time>2012-04-17T15:12:00Z</time>
      </trkpt>
      <trkpt lat="48.23178" lon="-3.29877">
        <ele>215.47265625</ele>
        <time>2012-04-17T15:12:10Z</time>
      </trkpt>
      <trkpt lat="48.23164" lon="-3.29859">
        <ele>214.99194335938</ele>
        <time>2012-04-17T15:12:19Z</time>
      </trkpt>
      <trkpt lat="48.23163" lon="-3.29839">
        <ele>213.55004882812</ele>
        <time>2012-04-17T15:12:26Z</time>
      </trkpt>
      <trkpt lat="48.2318" lon="-3.29785">
        <ele>208.26281738281</ele>
        <time>2012-04-17T15:12:41Z</time>
      </trkpt>
      <trkpt lat="48.23181" lon="-3.2976">
        <ele>206.82067871094</ele>
        <time>2012-04-17T15:12:55Z</time>
      </trkpt>
      <trkpt lat="48.23181" lon="-3.2976">
        <ele>206.82067871094</ele>
        <time>2012-04-17T15:13:10Z</time>
      </trkpt>
      <trkpt lat="48.23188" lon="-3.29749">
        <ele>206.34008789062</ele>
        <time>2012-04-17T15:13:25Z</time>
      </trkpt>
      <trkpt lat="48.23212" lon="-3.29735">
        <ele>206.34008789062</ele>
        <time>2012-04-17T15:13:39Z</time>
      </trkpt>
      <trkpt lat="48.23209" lon="-3.29737">
        <ele>206.34008789062</ele>
        <time>2012-04-17T15:13:51Z</time>
      </trkpt>
      <trkpt lat="48.23186" lon="-3.2975">
        <ele>206.34008789062</ele>
        <time>2012-04-17T15:14:11Z</time>
      </trkpt>
      <trkpt lat="48.23181" lon="-3.29765">
        <ele>206.82067871094</ele>
        <time>2012-04-17T15:14:22Z</time>
      </trkpt>
      <trkpt lat="48.23178" lon="-3.29771">
        <ele>207.78210449219</ele>
        <time>2012-04-17T15:14:38Z</time>
      </trkpt>
      <trkpt lat="48.23176" lon="-3.29768">
        <ele>207.78210449219</ele>
        <time>2012-04-17T15:14:52Z</time>
      </trkpt>
      <trkpt lat="48.23173" lon="-3.29766">
        <ele>209.70483398438</ele>
        <time>2012-04-17T15:15:02Z</time>
      </trkpt>
    </trkseg>
  </trk>
</gpx>